SQP591 LUKK-LSZH
Flight info
| Callsign | SQP591 |
|---|---|
| Flight time | 2h 31m |
| Altitude | 36000 |
| Route | NUNTA DCT KARIL DCT ABLOM DCT BAGSI DCT SBG DCT TRAUN DCT KONIN L856 NEGRA |
| Aircraft | B738/M-SDGIJ1LRWY/SB1 |
Departure
| Time | 2026-05-08 08:36 |
|---|---|
| Airport | Chişinău International Airport (LUKK) |
Arrival
| Time | 2026-05-08 11:07 |
|---|---|
| Airport | Zürich Airport (LSZH) |
| Time | Latitude | Longitude | Altitude | Speed | Heading |
|---|---|---|---|---|---|
| 2026-05-08 07:56 | 46.93366 | 28.93599 | 317 ft | 0 kts | 7° |
| 2026-05-08 08:28 | 46.93369 | 28.93599 | 316 ft | 1 kts | 7° |
| 2026-05-08 08:28 | 46.93376 | 28.93601 | 316 ft | 0 kts | 7° |
| 2026-05-08 08:29 | 46.93379 | 28.93601 | 316 ft | 1 kts | 7° |
| 2026-05-08 08:29 | 46.93399 | 28.93595 | 316 ft | 4 kts | 330° |
| 2026-05-08 08:29 | 46.93413 | 28.93556 | 317 ft | 4 kts | 283° |
| 2026-05-08 08:29 | 46.93413 | 28.93503 | 319 ft | 5 kts | 243° |
| 2026-05-08 08:30 | 46.93371 | 28.93478 | 319 ft | 8 kts | 185° |
| 2026-05-08 08:30 | 46.93300 | 28.93466 | 319 ft | 11 kts | 187° |
| 2026-05-08 08:30 | 46.93152 | 28.93475 | 319 ft | 9 kts | 116° |
| 2026-05-08 08:31 | 46.93141 | 28.93579 | 317 ft | 12 kts | 97° |
| 2026-05-08 08:31 | 46.93126 | 28.93745 | 313 ft | 20 kts | 98° |
| 2026-05-08 08:31 | 46.93105 | 28.93987 | 307 ft | 24 kts | 97° |
| 2026-05-08 08:31 | 46.93085 | 28.94234 | 301 ft | 23 kts | 96° |
| 2026-05-08 08:32 | 46.93064 | 28.94479 | 296 ft | 21 kts | 96° |
| 2026-05-08 08:32 | 46.93046 | 28.94698 | 291 ft | 21 kts | 97° |
| 2026-05-08 08:32 | 46.93028 | 28.94909 | 287 ft | 21 kts | 97° |
| 2026-05-08 08:32 | 46.93015 | 28.95057 | 283 ft | 10 kts | 101° |
| 2026-05-08 08:33 | 46.92975 | 28.95103 | 282 ft | 7 kts | 169° |
| 2026-05-08 08:33 | 46.92915 | 28.95108 | 282 ft | 10 kts | 178° |
| 2026-05-08 08:33 | 46.92843 | 28.95129 | 281 ft | 9 kts | 145° |
| 2026-05-08 08:33 | 46.92823 | 28.95219 | 279 ft | 10 kts | 91° |
| 2026-05-08 08:34 | 46.92838 | 28.95315 | 277 ft | 9 kts | 57° |
| 2026-05-08 08:34 | 46.92863 | 28.95393 | 276 ft | 7 kts | 90° |
| 2026-05-08 08:34 | 46.92834 | 28.95430 | 275 ft | 0 kts | 192° |
| 2026-05-08 08:34 | 46.92832 | 28.95429 | 275 ft | 0 kts | 213° |
| 2026-05-08 08:35 | 46.92827 | 28.95415 | 275 ft | 2 kts | 245° |
| 2026-05-08 08:35 | 46.92825 | 28.95372 | 276 ft | 5 kts | 269° |
| 2026-05-08 08:35 | 46.92823 | 28.95272 | 278 ft | 27 kts | 268° |
| 2026-05-08 08:35 | 46.92809 | 28.94655 | 289 ft | 92 kts | 268° |
| 2026-05-08 08:36 | 46.92787 | 28.93432 | 321 ft | 146 kts | 268° |
| 2026-05-08 08:36 | 46.92771 | 28.91750 | 499 ft | 176 kts | 268° |
| 2026-05-08 08:36 | 46.92764 | 28.89963 | 1106 ft | 179 kts | 266° |
| 2026-05-08 08:36 | 46.92733 | 28.88179 | 1635 ft | 182 kts | 264° |
| 2026-05-08 08:37 | 46.92675 | 28.86255 | 2006 ft | 194 kts | 264° |
| 2026-05-08 08:37 | 46.92608 | 28.84259 | 2439 ft | 203 kts | 264° |
| 2026-05-08 08:37 | 46.92561 | 28.82162 | 2809 ft | 214 kts | 265° |
| 2026-05-08 08:37 | 46.92520 | 28.80013 | 3322 ft | 217 kts | 265° |
| 2026-05-08 08:38 | 46.92476 | 28.77714 | 3620 ft | 234 kts | 266° |
| 2026-05-08 08:38 | 46.92430 | 28.75215 | 3918 ft | 254 kts | 266° |
| 2026-05-08 08:38 | 46.92380 | 28.72609 | 4475 ft | 263 kts | 266° |
| 2026-05-08 08:38 | 46.92474 | 28.69929 | 5149 ft | 268 kts | 280° |
| 2026-05-08 08:39 | 46.93012 | 28.67344 | 5855 ft | 271 kts | 289° |
| 2026-05-08 08:39 | 46.93681 | 28.64782 | 6556 ft | 273 kts | 289° |
| 2026-05-08 08:39 | 46.94327 | 28.62154 | 7246 ft | 275 kts | 287° |
| 2026-05-08 08:39 | 46.94925 | 28.59515 | 7917 ft | 277 kts | 285° |
| 2026-05-08 08:40 | 46.95506 | 28.56849 | 8580 ft | 279 kts | 285° |
| 2026-05-08 08:40 | 46.96083 | 28.54155 | 9232 ft | 281 kts | 284° |
| 2026-05-08 08:40 | 46.96666 | 28.51423 | 9874 ft | 284 kts | 284° |
| 2026-05-08 08:40 | 46.97255 | 28.48669 | 10435 ft | 290 kts | 284° |
| 2026-05-08 08:41 | 46.97872 | 28.45756 | 10743 ft | 305 kts | 284° |
| 2026-05-08 08:41 | 46.98513 | 28.42739 | 11075 ft | 319 kts | 285° |
| 2026-05-08 08:41 | 46.99183 | 28.39587 | 11395 ft | 333 kts | 285° |
| 2026-05-08 08:41 | 46.99885 | 28.36304 | 11963 ft | 339 kts | 285° |
| 2026-05-08 08:42 | 47.00591 | 28.33007 | 12588 ft | 343 kts | 284° |
| 2026-05-08 08:42 | 47.01311 | 28.29630 | 13214 ft | 347 kts | 284° |
| 2026-05-08 08:42 | 47.02025 | 28.26266 | 13842 ft | 351 kts | 284° |
| 2026-05-08 08:42 | 47.02754 | 28.22836 | 14515 ft | 354 kts | 284° |
| 2026-05-08 08:43 | 47.03478 | 28.19427 | 15193 ft | 356 kts | 284° |
| 2026-05-08 08:43 | 47.04213 | 28.15949 | 15854 ft | 359 kts | 284° |
| 2026-05-08 08:43 | 47.04943 | 28.12475 | 16495 ft | 361 kts | 284° |
| 2026-05-08 08:43 | 47.05680 | 28.08962 | 17098 ft | 364 kts | 284° |
| 2026-05-08 08:44 | 47.06432 | 28.05374 | 17723 ft | 367 kts | 284° |
| 2026-05-08 08:44 | 47.07177 | 28.01816 | 18281 ft | 371 kts | 284° |
| 2026-05-08 08:44 | 47.07936 | 27.98182 | 18903 ft | 373 kts | 284° |
| 2026-05-08 08:44 | 47.08694 | 27.94549 | 19442 ft | 377 kts | 284° |
| 2026-05-08 08:45 | 47.09460 | 27.90893 | 20010 ft | 379 kts | 284° |
| 2026-05-08 08:45 | 47.10231 | 27.87208 | 20550 ft | 382 kts | 284° |
| 2026-05-08 08:45 | 47.10978 | 27.83425 | 21105 ft | 383 kts | 282° |
| 2026-05-08 08:45 | 47.11589 | 27.79658 | 21614 ft | 385 kts | 279° |
| 2026-05-08 08:46 | 47.12143 | 27.75804 | 22127 ft | 387 kts | 279° |
| 2026-05-08 08:46 | 47.12685 | 27.71897 | 22621 ft | 390 kts | 279° |
| 2026-05-08 08:46 | 47.13222 | 27.68048 | 23094 ft | 392 kts | 279° |
| 2026-05-08 08:46 | 47.13784 | 27.64098 | 23556 ft | 395 kts | 279° |
| 2026-05-08 08:47 | 47.14355 | 27.60149 | 24029 ft | 397 kts | 279° |
| 2026-05-08 08:47 | 47.14938 | 27.56166 | 24474 ft | 400 kts | 279° |
| 2026-05-08 08:47 | 47.15528 | 27.52179 | 24932 ft | 402 kts | 280° |
| 2026-05-08 08:47 | 47.16123 | 27.48165 | 25364 ft | 404 kts | 280° |
| 2026-05-08 08:48 | 47.16716 | 27.44172 | 25771 ft | 407 kts | 280° |
| 2026-05-08 08:48 | 47.17321 | 27.40097 | 26193 ft | 409 kts | 280° |
| 2026-05-08 08:48 | 47.17923 | 27.36029 | 26621 ft | 410 kts | 280° |
| 2026-05-08 08:48 | 47.18532 | 27.31908 | 27037 ft | 412 kts | 279° |
| 2026-05-08 08:49 | 47.19133 | 27.27831 | 27494 ft | 413 kts | 279° |
| 2026-05-08 08:49 | 47.19740 | 27.23706 | 27886 ft | 415 kts | 279° |
| 2026-05-08 08:49 | 47.20345 | 27.19578 | 28359 ft | 415 kts | 279° |
| 2026-05-08 08:49 | 47.20946 | 27.15467 | 28752 ft | 416 kts | 279° |
| 2026-05-08 08:50 | 47.21554 | 27.11291 | 29124 ft | 418 kts | 279° |
| 2026-05-08 08:50 | 47.22159 | 27.07131 | 29492 ft | 420 kts | 279° |
| 2026-05-08 08:50 | 47.22773 | 27.02909 | 29878 ft | 421 kts | 279° |
| 2026-05-08 08:50 | 47.23387 | 26.98677 | 30197 ft | 424 kts | 279° |
| 2026-05-08 08:51 | 47.24004 | 26.94414 | 30581 ft | 425 kts | 279° |
| 2026-05-08 08:51 | 47.24616 | 26.90167 | 30969 ft | 425 kts | 279° |
| 2026-05-08 08:51 | 47.25218 | 26.85965 | 31432 ft | 423 kts | 279° |
| 2026-05-08 08:51 | 47.25830 | 26.81697 | 31950 ft | 420 kts | 279° |
| 2026-05-08 08:52 | 47.26429 | 26.77516 | 32473 ft | 417 kts | 279° |
| 2026-05-08 08:52 | 47.27025 | 26.73334 | 32975 ft | 413 kts | 279° |
| 2026-05-08 08:52 | 47.27617 | 26.69167 | 33421 ft | 411 kts | 279° |
| 2026-05-08 08:52 | 47.28204 | 26.65028 | 33834 ft | 409 kts | 279° |
| 2026-05-08 08:53 | 47.28778 | 26.60962 | 34221 ft | 407 kts | 279° |
| 2026-05-08 08:53 | 47.29348 | 26.56906 | 34584 ft | 405 kts | 279° |
| 2026-05-08 08:53 | 47.29922 | 26.52810 | 34849 ft | 404 kts | 279° |
| 2026-05-08 08:53 | 47.30492 | 26.48717 | 35021 ft | 406 kts | 279° |
| 2026-05-08 08:54 | 47.31048 | 26.44715 | 35231 ft | 406 kts | 279° |
| 2026-05-08 08:54 | 47.31613 | 26.40654 | 35449 ft | 406 kts | 279° |
| 2026-05-08 08:54 | 47.32184 | 26.36549 | 35691 ft | 405 kts | 279° |
| 2026-05-08 08:54 | 47.32744 | 26.32507 | 35905 ft | 405 kts | 278° |
| 2026-05-08 08:55 | 47.33306 | 26.28430 | 36019 ft | 406 kts | 278° |
| 2026-05-08 08:55 | 47.33871 | 26.24327 | 36024 ft | 408 kts | 278° |
| 2026-05-08 08:55 | 47.34997 | 26.16110 | 36030 ft | 406 kts | 278° |
| 2026-05-08 08:56 | 47.36102 | 26.07999 | 36027 ft | 405 kts | 278° |
| 2026-05-08 08:56 | 47.37211 | 25.99809 | 36039 ft | 406 kts | 278° |
| 2026-05-08 08:57 | 47.38306 | 25.91694 | 36040 ft | 403 kts | 278° |
| 2026-05-08 08:57 | 47.39408 | 25.83467 | 36045 ft | 406 kts | 278° |
| 2026-05-08 08:58 | 47.40492 | 25.75328 | 36043 ft | 403 kts | 278° |
| 2026-05-08 08:58 | 47.41567 | 25.67205 | 36050 ft | 404 kts | 278° |
| 2026-05-08 08:59 | 47.42643 | 25.59021 | 36047 ft | 405 kts | 278° |
| 2026-05-08 08:59 | 47.43706 | 25.50905 | 36055 ft | 405 kts | 278° |
| 2026-05-08 09:00 | 47.44773 | 25.42726 | 36058 ft | 405 kts | 278° |
| 2026-05-08 09:00 | 47.45826 | 25.34598 | 36061 ft | 405 kts | 278° |
| 2026-05-08 09:01 | 47.46881 | 25.26417 | 36047 ft | 403 kts | 277° |
| 2026-05-08 09:01 | 47.47920 | 25.18296 | 36054 ft | 402 kts | 277° |
| 2026-05-08 09:02 | 47.48951 | 25.10169 | 36054 ft | 403 kts | 277° |
| 2026-05-08 09:02 | 47.49975 | 25.02050 | 36069 ft | 402 kts | 277° |
| 2026-05-08 09:03 | 47.50993 | 24.93951 | 36056 ft | 402 kts | 277° |
| 2026-05-08 09:03 | 47.52009 | 24.85825 | 36054 ft | 404 kts | 277° |
| 2026-05-08 09:04 | 47.53025 | 24.77661 | 36053 ft | 403 kts | 277° |
| 2026-05-08 09:04 | 47.54025 | 24.69562 | 36067 ft | 404 kts | 277° |
| 2026-05-08 09:05 | 47.55035 | 24.61325 | 36060 ft | 403 kts | 277° |
| 2026-05-08 09:05 | 47.56027 | 24.53183 | 36057 ft | 403 kts | 277° |
| 2026-05-08 09:06 | 47.57023 | 24.44959 | 36066 ft | 405 kts | 277° |
| 2026-05-08 09:06 | 47.58001 | 24.36829 | 36059 ft | 404 kts | 277° |
| 2026-05-08 09:07 | 47.58986 | 24.28572 | 36053 ft | 405 kts | 277° |
| 2026-05-08 09:07 | 47.59962 | 24.20343 | 36048 ft | 405 kts | 277° |
| 2026-05-08 09:08 | 47.60929 | 24.12169 | 36052 ft | 405 kts | 277° |
| 2026-05-08 09:08 | 47.61894 | 24.03954 | 36050 ft | 406 kts | 277° |
| 2026-05-08 09:09 | 47.62854 | 23.95720 | 36053 ft | 407 kts | 277° |
| 2026-05-08 09:09 | 47.63810 | 23.87469 | 36052 ft | 405 kts | 277° |
| 2026-05-08 09:10 | 47.64751 | 23.79296 | 36061 ft | 405 kts | 277° |
| 2026-05-08 09:10 | 47.65692 | 23.71071 | 36043 ft | 404 kts | 277° |
| 2026-05-08 09:11 | 47.66623 | 23.62878 | 36061 ft | 406 kts | 277° |
| 2026-05-08 09:11 | 47.67556 | 23.54613 | 36071 ft | 405 kts | 277° |
| 2026-05-08 09:12 | 47.68473 | 23.46408 | 36076 ft | 407 kts | 277° |
| 2026-05-08 09:12 | 47.69392 | 23.38170 | 36057 ft | 404 kts | 277° |
| 2026-05-08 09:13 | 47.70310 | 23.29871 | 36056 ft | 406 kts | 276° |
| 2026-05-08 09:13 | 47.71214 | 23.21619 | 36054 ft | 405 kts | 276° |
| 2026-05-08 09:14 | 47.72108 | 23.13395 | 36056 ft | 404 kts | 277° |
| 2026-05-08 09:14 | 47.72999 | 23.05158 | 36065 ft | 405 kts | 276° |
| 2026-05-08 09:15 | 47.73879 | 22.96964 | 36051 ft | 405 kts | 277° |
| 2026-05-08 09:15 | 47.74765 | 22.88674 | 36056 ft | 405 kts | 277° |
| 2026-05-08 09:16 | 47.75646 | 22.80390 | 36053 ft | 403 kts | 277° |
| 2026-05-08 09:16 | 47.76503 | 22.72242 | 36049 ft | 403 kts | 277° |
| 2026-05-08 09:17 | 47.77363 | 22.63992 | 36052 ft | 404 kts | 277° |
| 2026-05-08 09:17 | 47.78217 | 22.55763 | 36046 ft | 404 kts | 277° |
| 2026-05-08 09:18 | 47.79073 | 22.47471 | 36051 ft | 404 kts | 277° |
| 2026-05-08 09:18 | 47.79856 | 22.39221 | 36043 ft | 404 kts | 275° |
| 2026-05-08 09:19 | 47.80463 | 22.30889 | 36045 ft | 403 kts | 274° |
| 2026-05-08 09:19 | 47.81029 | 22.22674 | 36049 ft | 403 kts | 274° |
| 2026-05-08 09:20 | 47.81610 | 22.14350 | 36052 ft | 401 kts | 274° |
| 2026-05-08 09:20 | 47.82192 | 22.06110 | 36059 ft | 400 kts | 274° |
| 2026-05-08 09:21 | 47.82771 | 21.97886 | 36057 ft | 401 kts | 274° |
| 2026-05-08 09:23 | 47.84775 | 21.69028 | 36048 ft | 399 kts | 274° |
| 2026-05-08 09:23 | 47.85326 | 21.60863 | 36050 ft | 400 kts | 274° |
| 2026-05-08 09:24 | 47.85880 | 21.52578 | 36050 ft | 401 kts | 274° |
| 2026-05-08 09:24 | 47.86424 | 21.44353 | 36045 ft | 400 kts | 274° |
| 2026-05-08 09:25 | 47.86967 | 21.36045 | 36038 ft | 402 kts | 274° |
| 2026-05-08 09:25 | 47.87500 | 21.27824 | 36036 ft | 400 kts | 274° |
| 2026-05-08 09:26 | 47.88030 | 21.19553 | 36032 ft | 400 kts | 273° |
| 2026-05-08 09:26 | 47.88549 | 21.11364 | 36030 ft | 400 kts | 274° |
| 2026-05-08 09:27 | 47.89063 | 21.03148 | 36037 ft | 398 kts | 273° |
| 2026-05-08 09:27 | 47.89573 | 20.94928 | 36037 ft | 398 kts | 274° |
| 2026-05-08 09:28 | 47.90075 | 20.86730 | 36034 ft | 398 kts | 274° |
| 2026-05-08 09:28 | 47.90569 | 20.78553 | 36034 ft | 397 kts | 274° |
| 2026-05-08 09:29 | 47.91058 | 20.70347 | 36025 ft | 398 kts | 274° |
| 2026-05-08 09:29 | 47.91543 | 20.62097 | 36027 ft | 397 kts | 274° |
| 2026-05-08 09:30 | 47.92018 | 20.53936 | 36016 ft | 397 kts | 274° |
| 2026-05-08 09:30 | 47.92491 | 20.45715 | 36027 ft | 398 kts | 274° |
| 2026-05-08 09:31 | 47.92959 | 20.37468 | 36031 ft | 397 kts | 274° |
| 2026-05-08 09:31 | 47.93419 | 20.29277 | 36024 ft | 396 kts | 273° |
| 2026-05-08 09:32 | 47.93870 | 20.21111 | 36020 ft | 396 kts | 273° |
| 2026-05-08 09:32 | 47.94318 | 20.12953 | 36021 ft | 397 kts | 273° |
| 2026-05-08 09:33 | 47.94761 | 20.04745 | 36029 ft | 396 kts | 273° |
| 2026-05-08 09:33 | 47.95192 | 19.96588 | 36019 ft | 395 kts | 273° |
| 2026-05-08 09:34 | 47.95619 | 19.88408 | 36022 ft | 396 kts | 273° |
| 2026-05-08 09:34 | 47.96040 | 19.80261 | 36026 ft | 396 kts | 273° |
| 2026-05-08 09:35 | 47.96459 | 19.72085 | 36024 ft | 395 kts | 273° |
| 2026-05-08 09:35 | 47.96873 | 19.63878 | 36034 ft | 398 kts | 273° |
| 2026-05-08 09:36 | 47.97277 | 19.55714 | 36031 ft | 395 kts | 273° |
| 2026-05-08 09:36 | 47.97679 | 19.47494 | 36032 ft | 395 kts | 273° |
| 2026-05-08 09:37 | 47.98071 | 19.39346 | 36028 ft | 395 kts | 273° |
| 2026-05-08 09:37 | 47.98461 | 19.31126 | 36034 ft | 396 kts | 272° |
| 2026-05-08 09:38 | 47.98843 | 19.22958 | 36035 ft | 394 kts | 272° |
| 2026-05-08 09:38 | 47.99221 | 19.14749 | 36035 ft | 396 kts | 272° |
| 2026-05-08 09:39 | 47.99594 | 19.06535 | 36047 ft | 393 kts | 272° |
| 2026-05-08 09:39 | 47.99956 | 18.98415 | 36040 ft | 392 kts | 272° |
| 2026-05-08 09:40 | 48.00314 | 18.90258 | 36057 ft | 394 kts | 272° |
| 2026-05-08 09:40 | 48.00663 | 18.82139 | 36045 ft | 394 kts | 272° |
| 2026-05-08 09:41 | 48.01010 | 18.73945 | 36039 ft | 396 kts | 272° |
| 2026-05-08 09:41 | 48.01352 | 18.65754 | 36028 ft | 394 kts | 272° |
| 2026-05-08 09:42 | 48.01688 | 18.57600 | 36034 ft | 395 kts | 272° |
| 2026-05-08 09:42 | 48.02018 | 18.49425 | 36047 ft | 396 kts | 272° |
| 2026-05-08 09:43 | 48.02344 | 18.41226 | 36053 ft | 393 kts | 272° |
| 2026-05-08 09:43 | 48.02663 | 18.33026 | 36044 ft | 394 kts | 272° |
| 2026-05-08 09:44 | 48.02972 | 18.24877 | 36061 ft | 393 kts | 272° |
| 2026-05-08 09:44 | 48.03278 | 18.16705 | 36050 ft | 394 kts | 272° |
| 2026-05-08 09:45 | 48.03576 | 18.08584 | 36054 ft | 394 kts | 272° |
| 2026-05-08 09:45 | 48.03870 | 18.00424 | 36050 ft | 393 kts | 272° |
| 2026-05-08 09:46 | 48.04158 | 17.92282 | 36051 ft | 395 kts | 272° |
| 2026-05-08 09:46 | 48.04442 | 17.84074 | 36057 ft | 394 kts | 272° |
| 2026-05-08 09:47 | 48.04716 | 17.75931 | 36056 ft | 393 kts | 272° |
| 2026-05-08 09:47 | 48.04986 | 17.67784 | 36062 ft | 392 kts | 272° |
| 2026-05-08 09:48 | 48.05252 | 17.59640 | 36064 ft | 392 kts | 272° |
| 2026-05-08 09:48 | 48.05512 | 17.51480 | 36059 ft | 393 kts | 272° |
| 2026-05-08 09:49 | 48.05764 | 17.43303 | 36074 ft | 393 kts | 271° |
| 2026-05-08 09:49 | 48.06010 | 17.35123 | 36065 ft | 392 kts | 271° |
| 2026-05-08 09:50 | 48.06252 | 17.26978 | 36061 ft | 393 kts | 271° |
| 2026-05-08 09:50 | 48.06486 | 17.18850 | 36071 ft | 392 kts | 271° |
| 2026-05-08 09:51 | 48.06717 | 17.10627 | 36068 ft | 392 kts | 271° |
| 2026-05-08 09:51 | 48.06882 | 17.02471 | 36075 ft | 393 kts | 270° |
| 2026-05-08 09:52 | 48.06932 | 16.94339 | 36067 ft | 392 kts | 269° |
| 2026-05-08 09:52 | 48.06964 | 16.86184 | 36063 ft | 391 kts | 269° |
| 2026-05-08 09:53 | 48.07000 | 16.78009 | 36072 ft | 392 kts | 270° |
| 2026-05-08 09:53 | 48.07041 | 16.69904 | 36083 ft | 392 kts | 270° |
| 2026-05-08 09:54 | 48.07081 | 16.61760 | 36077 ft | 391 kts | 269° |
| 2026-05-08 09:54 | 48.07118 | 16.53583 | 36071 ft | 393 kts | 270° |
| 2026-05-08 09:55 | 48.07146 | 16.45411 | 36064 ft | 391 kts | 269° |
| 2026-05-08 09:55 | 48.07170 | 16.37280 | 36068 ft | 392 kts | 269° |
| 2026-05-08 09:56 | 48.07187 | 16.29165 | 36064 ft | 391 kts | 269° |
| 2026-05-08 09:56 | 48.07196 | 16.21063 | 36065 ft | 391 kts | 269° |
| 2026-05-08 09:57 | 48.07202 | 16.08861 | 36083 ft | 393 kts | 269° |
| 2026-05-08 09:57 | 48.07197 | 16.00658 | 36082 ft | 393 kts | 269° |
| 2026-05-08 09:58 | 48.07188 | 15.92529 | 36075 ft | 393 kts | 269° |
| 2026-05-08 09:58 | 48.07175 | 15.84381 | 36060 ft | 393 kts | 269° |
| 2026-05-08 09:59 | 48.07154 | 15.76168 | 36075 ft | 393 kts | 268° |
| 2026-05-08 09:59 | 48.07128 | 15.68028 | 36071 ft | 392 kts | 268° |
| 2026-05-08 10:00 | 48.07096 | 15.59851 | 36066 ft | 392 kts | 268° |
| 2026-05-08 10:00 | 48.07060 | 15.51726 | 36073 ft | 392 kts | 268° |
| 2026-05-08 10:01 | 48.07015 | 15.43540 | 36066 ft | 392 kts | 268° |
| 2026-05-08 10:01 | 48.06966 | 15.35393 | 36072 ft | 392 kts | 268° |
| 2026-05-08 10:02 | 48.06911 | 15.27266 | 36076 ft | 393 kts | 268° |
| 2026-05-08 10:02 | 48.06850 | 15.19120 | 36063 ft | 393 kts | 268° |
| 2026-05-08 10:03 | 48.06784 | 15.10998 | 36068 ft | 392 kts | 268° |
| 2026-05-08 10:03 | 48.06712 | 15.02835 | 36075 ft | 394 kts | 268° |
| 2026-05-08 10:04 | 48.06633 | 14.94666 | 36067 ft | 391 kts | 268° |
| 2026-05-08 10:04 | 48.06549 | 14.86496 | 36074 ft | 393 kts | 267° |
| 2026-05-08 10:05 | 48.06459 | 14.78374 | 36070 ft | 391 kts | 267° |
| 2026-05-08 10:05 | 48.06365 | 14.70209 | 36062 ft | 393 kts | 267° |
| 2026-05-08 10:06 | 48.06264 | 14.62011 | 36064 ft | 393 kts | 267° |
| 2026-05-08 10:06 | 48.06156 | 14.53826 | 36074 ft | 393 kts | 267° |
| 2026-05-08 10:07 | 48.06042 | 14.45620 | 36066 ft | 394 kts | 267° |
| 2026-05-08 10:07 | 48.05923 | 14.37411 | 36064 ft | 394 kts | 267° |
| 2026-05-08 10:08 | 48.05799 | 14.29243 | 36069 ft | 395 kts | 266° |
| 2026-05-08 10:08 | 48.05580 | 14.21018 | 36072 ft | 394 kts | 265° |
| 2026-05-08 10:09 | 48.05277 | 14.12869 | 36067 ft | 395 kts | 265° |
| 2026-05-08 10:09 | 48.04970 | 14.04676 | 36070 ft | 395 kts | 265° |
| 2026-05-08 10:10 | 48.04665 | 13.96445 | 36061 ft | 395 kts | 265° |
| 2026-05-08 10:10 | 48.04363 | 13.88273 | 36056 ft | 396 kts | 265° |
| 2026-05-08 10:11 | 48.04054 | 13.80031 | 36061 ft | 395 kts | 265° |
| 2026-05-08 10:11 | 48.03742 | 13.71818 | 36053 ft | 394 kts | 265° |
| 2026-05-08 10:12 | 48.03427 | 13.63688 | 36055 ft | 394 kts | 265° |
| 2026-05-08 10:12 | 48.03103 | 13.55488 | 36057 ft | 396 kts | 265° |
| 2026-05-08 10:13 | 48.02772 | 13.47280 | 36051 ft | 397 kts | 265° |
| 2026-05-08 10:13 | 48.02434 | 13.39057 | 36053 ft | 395 kts | 265° |
| 2026-05-08 10:14 | 48.02093 | 13.30845 | 36050 ft | 395 kts | 264° |
| 2026-05-08 10:14 | 48.01746 | 13.22674 | 36054 ft | 394 kts | 264° |
| 2026-05-08 10:15 | 48.01393 | 13.14494 | 36052 ft | 395 kts | 264° |
| 2026-05-08 10:15 | 48.01047 | 13.06297 | 36056 ft | 396 kts | 265° |
| 2026-05-08 10:16 | 48.00740 | 12.98060 | 36052 ft | 396 kts | 264° |
| 2026-05-08 10:16 | 48.00339 | 12.89826 | 36057 ft | 397 kts | 264° |
| 2026-05-08 10:17 | 47.99734 | 12.81652 | 36058 ft | 397 kts | 260° |
| 2026-05-08 10:17 | 47.98936 | 12.73548 | 36049 ft | 396 kts | 260° |
| 2026-05-08 10:18 | 47.98134 | 12.65419 | 36055 ft | 397 kts | 260° |
| 2026-05-08 10:18 | 47.97356 | 12.57265 | 36045 ft | 398 kts | 261° |
| 2026-05-08 10:19 | 47.96589 | 12.49090 | 36052 ft | 397 kts | 261° |
| 2026-05-08 10:20 | 47.95450 | 12.36887 | 36052 ft | 398 kts | 261° |
| 2026-05-08 10:20 | 47.94681 | 12.28728 | 36049 ft | 398 kts | 260° |
| 2026-05-08 10:21 | 47.93905 | 12.20569 | 36053 ft | 397 kts | 260° |
| 2026-05-08 10:21 | 47.93124 | 12.12419 | 36059 ft | 400 kts | 260° |
| 2026-05-08 10:22 | 47.92341 | 12.04295 | 36065 ft | 397 kts | 259° |
| 2026-05-08 10:22 | 47.91545 | 11.96126 | 36056 ft | 396 kts | 259° |
| 2026-05-08 10:23 | 47.90752 | 11.88036 | 36050 ft | 398 kts | 259° |
| 2026-05-08 10:23 | 47.89948 | 11.79887 | 36053 ft | 399 kts | 260° |
| 2026-05-08 10:24 | 47.89131 | 11.71678 | 36059 ft | 397 kts | 259° |
| 2026-05-08 10:24 | 47.88320 | 11.63581 | 36049 ft | 399 kts | 260° |
| 2026-05-08 10:25 | 47.87490 | 11.55350 | 36052 ft | 399 kts | 259° |
| 2026-05-08 10:25 | 47.86657 | 11.47171 | 36057 ft | 399 kts | 259° |
| 2026-05-08 10:26 | 47.85818 | 11.38998 | 36059 ft | 400 kts | 259° |
| 2026-05-08 10:26 | 47.84977 | 11.30843 | 36068 ft | 400 kts | 259° |
| 2026-05-08 10:27 | 47.84128 | 11.22663 | 36062 ft | 399 kts | 259° |
| 2026-05-08 10:27 | 47.83270 | 11.14457 | 36059 ft | 400 kts | 259° |
| 2026-05-08 10:28 | 47.82417 | 11.06356 | 36057 ft | 395 kts | 259° |
| 2026-05-08 10:28 | 47.81989 | 11.02329 | 35932 ft | 386 kts | 259° |
| 2026-05-08 10:28 | 47.81574 | 10.98445 | 35688 ft | 382 kts | 259° |
| 2026-05-08 10:28 | 47.81148 | 10.94488 | 35285 ft | 384 kts | 259° |
| 2026-05-08 10:29 | 47.80728 | 10.90589 | 34930 ft | 383 kts | 259° |
| 2026-05-08 10:29 | 47.80315 | 10.86757 | 34736 ft | 372 kts | 258° |
| 2026-05-08 10:29 | 47.79909 | 10.82992 | 34063 ft | 369 kts | 258° |
| 2026-05-08 10:29 | 47.79503 | 10.79254 | 33291 ft | 365 kts | 258° |
| 2026-05-08 10:30 | 47.79098 | 10.75550 | 32669 ft | 359 kts | 258° |
| 2026-05-08 10:30 | 47.78700 | 10.71941 | 32156 ft | 356 kts | 258° |
| 2026-05-08 10:30 | 47.78294 | 10.68312 | 31688 ft | 352 kts | 258° |
| 2026-05-08 10:30 | 47.77902 | 10.64734 | 31225 ft | 349 kts | 258° |
| 2026-05-08 10:31 | 47.77515 | 10.61185 | 30764 ft | 345 kts | 258° |
| 2026-05-08 10:31 | 47.77130 | 10.57705 | 30314 ft | 342 kts | 259° |
| 2026-05-08 10:31 | 47.76745 | 10.54267 | 29870 ft | 338 kts | 258° |
| 2026-05-08 10:31 | 47.76360 | 10.50801 | 29428 ft | 335 kts | 259° |
| 2026-05-08 10:32 | 47.75990 | 10.47423 | 28983 ft | 332 kts | 259° |
| 2026-05-08 10:32 | 47.75611 | 10.44058 | 28545 ft | 329 kts | 259° |
| 2026-05-08 10:32 | 47.75235 | 10.40740 | 28117 ft | 326 kts | 259° |
| 2026-05-08 10:32 | 47.74864 | 10.37472 | 27695 ft | 323 kts | 259° |
| 2026-05-08 10:33 | 47.74552 | 10.34165 | 27260 ft | 320 kts | 262° |
| 2026-05-08 10:33 | 47.74399 | 10.30868 | 26836 ft | 318 kts | 265° |
| 2026-05-08 10:33 | 47.74332 | 10.27644 | 26427 ft | 316 kts | 266° |
| 2026-05-08 10:33 | 47.74287 | 10.24396 | 26006 ft | 315 kts | 266° |
| 2026-05-08 10:34 | 47.74236 | 10.21053 | 25586 ft | 331 kts | 266° |
| 2026-05-08 10:34 | 47.74173 | 10.17614 | 25120 ft | 338 kts | 266° |
| 2026-05-08 10:34 | 47.74103 | 10.14146 | 24672 ft | 336 kts | 266° |
| 2026-05-08 10:34 | 47.74028 | 10.10661 | 24214 ft | 333 kts | 266° |
| 2026-05-08 10:35 | 47.73950 | 10.07257 | 23781 ft | 330 kts | 266° |
| 2026-05-08 10:35 | 47.73871 | 10.03884 | 23357 ft | 327 kts | 266° |
| 2026-05-08 10:35 | 47.73790 | 10.00533 | 22912 ft | 325 kts | 267° |
| 2026-05-08 10:35 | 47.73709 | 9.97223 | 22487 ft | 322 kts | 267° |
| 2026-05-08 10:36 | 47.73627 | 9.93916 | 22060 ft | 319 kts | 267° |
| 2026-05-08 10:36 | 47.73548 | 9.90666 | 21666 ft | 317 kts | 266° |
| 2026-05-08 10:36 | 47.73465 | 9.87381 | 21228 ft | 315 kts | 266° |
| 2026-05-08 10:36 | 47.73382 | 9.84162 | 20810 ft | 313 kts | 267° |
| 2026-05-08 10:37 | 47.73298 | 9.80940 | 20385 ft | 311 kts | 266° |
| 2026-05-08 10:37 | 47.73215 | 9.77748 | 19995 ft | 309 kts | 266° |
| 2026-05-08 10:37 | 47.73132 | 9.74612 | 19575 ft | 307 kts | 267° |
| 2026-05-08 10:37 | 47.73047 | 9.71425 | 19165 ft | 306 kts | 267° |
| 2026-05-08 10:38 | 47.72963 | 9.68298 | 18759 ft | 304 kts | 267° |
| 2026-05-08 10:38 | 47.72878 | 9.65178 | 18358 ft | 302 kts | 267° |
| 2026-05-08 10:38 | 47.72792 | 9.62099 | 17965 ft | 300 kts | 267° |
| 2026-05-08 10:38 | 47.72704 | 9.59025 | 17568 ft | 299 kts | 267° |
| 2026-05-08 10:39 | 47.72617 | 9.55958 | 17174 ft | 297 kts | 267° |
| 2026-05-08 10:39 | 47.72527 | 9.52879 | 16392 ft | 304 kts | 267° |
| 2026-05-08 10:39 | 47.72436 | 9.49761 | 15671 ft | 305 kts | 267° |
| 2026-05-08 10:39 | 47.72339 | 9.46628 | 15029 ft | 303 kts | 265° |
| 2026-05-08 10:40 | 47.72042 | 9.43568 | 14374 ft | 300 kts | 253° |
| 2026-05-08 10:40 | 47.71190 | 9.40797 | 13749 ft | 296 kts | 235° |
| 2026-05-08 10:40 | 47.69941 | 9.38405 | 13159 ft | 293 kts | 231° |
| 2026-05-08 10:40 | 47.68639 | 9.36094 | 12557 ft | 290 kts | 231° |
| 2026-05-08 10:41 | 47.67386 | 9.33765 | 11998 ft | 287 kts | 236° |
| 2026-05-08 10:41 | 47.66419 | 9.31229 | 11401 ft | 285 kts | 244° |
| 2026-05-08 10:41 | 47.65619 | 9.28556 | 10812 ft | 282 kts | 246° |
| 2026-05-08 10:41 | 47.64834 | 9.25908 | 10238 ft | 279 kts | 245° |
| 2026-05-08 10:42 | 47.64017 | 9.23314 | 9734 ft | 276 kts | 243° |
| 2026-05-08 10:42 | 47.63186 | 9.20795 | 9408 ft | 272 kts | 243° |
| 2026-05-08 10:42 | 47.62349 | 9.18313 | 9026 ft | 271 kts | 243° |
| 2026-05-08 10:42 | 47.61499 | 9.15812 | 8664 ft | 269 kts | 243° |
| 2026-05-08 10:43 | 47.60669 | 9.13372 | 8346 ft | 264 kts | 243° |
| 2026-05-08 10:43 | 47.59851 | 9.10967 | 8010 ft | 262 kts | 243° |
| 2026-05-08 10:43 | 47.59022 | 9.08533 | 7629 ft | 263 kts | 243° |
| 2026-05-08 10:43 | 47.58198 | 9.06120 | 7265 ft | 264 kts | 243° |
| 2026-05-08 10:44 | 47.57530 | 9.03582 | 6984 ft | 264 kts | 257° |
| 2026-05-08 10:44 | 47.57464 | 9.00901 | 6983 ft | 263 kts | 275° |
| 2026-05-08 10:44 | 47.57727 | 8.98222 | 6952 ft | 266 kts | 279° |
| 2026-05-08 10:44 | 47.58051 | 8.95500 | 6962 ft | 269 kts | 279° |
| 2026-05-08 10:45 | 47.58332 | 8.92818 | 6965 ft | 266 kts | 278° |
| 2026-05-08 10:45 | 47.58604 | 8.90106 | 6941 ft | 264 kts | 280° |
| 2026-05-08 10:45 | 47.58944 | 8.87470 | 6854 ft | 253 kts | 282° |
| 2026-05-08 10:45 | 47.59296 | 8.84960 | 6682 ft | 247 kts | 282° |
| 2026-05-08 10:46 | 47.59631 | 8.82512 | 6492 ft | 244 kts | 281° |
| 2026-05-08 10:46 | 47.59957 | 8.80031 | 6399 ft | 245 kts | 281° |
| 2026-05-08 10:46 | 47.60274 | 8.77553 | 6307 ft | 246 kts | 281° |
| 2026-05-08 10:46 | 47.60590 | 8.75063 | 6203 ft | 244 kts | 280° |
| 2026-05-08 10:47 | 47.60897 | 8.72614 | 6106 ft | 244 kts | 280° |
| 2026-05-08 10:47 | 47.61208 | 8.70136 | 5993 ft | 244 kts | 280° |
| 2026-05-08 10:47 | 47.61515 | 8.67679 | 5865 ft | 241 kts | 281° |
| 2026-05-08 10:47 | 47.61819 | 8.65247 | 5757 ft | 237 kts | 281° |
| 2026-05-08 10:48 | 47.62115 | 8.62859 | 5660 ft | 235 kts | 281° |
| 2026-05-08 10:48 | 47.62411 | 8.60490 | 5537 ft | 236 kts | 281° |
| 2026-05-08 10:48 | 47.62711 | 8.58087 | 5408 ft | 235 kts | 282° |
| 2026-05-08 10:48 | 47.63005 | 8.55733 | 5279 ft | 235 kts | 282° |
| 2026-05-08 10:49 | 47.63302 | 8.53350 | 5150 ft | 234 kts | 282° |
| 2026-05-08 10:49 | 47.63593 | 8.51000 | 5027 ft | 234 kts | 282° |
| 2026-05-08 10:49 | 47.63889 | 8.48607 | 4904 ft | 233 kts | 281° |
| 2026-05-08 10:49 | 47.64177 | 8.46265 | 4784 ft | 233 kts | 281° |
| 2026-05-08 10:50 | 47.64463 | 8.43946 | 4681 ft | 223 kts | 281° |
| 2026-05-08 10:50 | 47.64733 | 8.41743 | 4572 ft | 214 kts | 281° |
| 2026-05-08 10:50 | 47.64727 | 8.39596 | 4479 ft | 207 kts | 253° |
| 2026-05-08 10:50 | 47.63972 | 8.37841 | 4360 ft | 198 kts | 222° |
| 2026-05-08 10:51 | 47.62839 | 8.36724 | 4273 ft | 195 kts | 206° |
| 2026-05-08 10:51 | 47.61533 | 8.36149 | 4146 ft | 197 kts | 179° |
| 2026-05-08 10:51 | 47.60292 | 8.36798 | 4039 ft | 193 kts | 139° |
| 2026-05-08 10:51 | 47.59414 | 8.38257 | 3956 ft | 189 kts | 129° |
| 2026-05-08 10:52 | 47.58505 | 8.39636 | 3947 ft | 181 kts | 137° |
| 2026-05-08 10:52 | 47.57605 | 8.40790 | 3977 ft | 168 kts | 137° |
| 2026-05-08 10:52 | 47.56734 | 8.41963 | 3688 ft | 169 kts | 135° |
| 2026-05-08 10:52 | 47.55896 | 8.43131 | 3433 ft | 162 kts | 135° |
| 2026-05-08 10:53 | 47.55054 | 8.44278 | 3249 ft | 166 kts | 136° |
| 2026-05-08 10:53 | 47.54210 | 8.45431 | 3014 ft | 164 kts | 135° |
| 2026-05-08 10:53 | 47.53363 | 8.46592 | 2788 ft | 164 kts | 136° |
| 2026-05-08 10:53 | 47.52539 | 8.47712 | 2561 ft | 160 kts | 136° |
| 2026-05-08 10:54 | 47.51709 | 8.48849 | 2381 ft | 162 kts | 136° |
| 2026-05-08 10:54 | 47.50876 | 8.49980 | 2140 ft | 161 kts | 135° |
| 2026-05-08 10:54 | 47.50068 | 8.51090 | 1903 ft | 159 kts | 137° |
| 2026-05-08 10:54 | 47.49239 | 8.52201 | 1737 ft | 160 kts | 136° |
| 2026-05-08 10:55 | 47.48404 | 8.53330 | 1529 ft | 163 kts | 136° |
| 2026-05-08 10:55 | 47.47566 | 8.54496 | 1563 ft | 171 kts | 137° |
| 2026-05-08 10:55 | 47.46665 | 8.55707 | 1958 ft | 178 kts | 135° |
| 2026-05-08 10:55 | 47.45793 | 8.56935 | 2563 ft | 171 kts | 135° |
| 2026-05-08 10:56 | 47.44875 | 8.58120 | 2956 ft | 179 kts | 140° |
| 2026-05-08 10:56 | 47.43903 | 8.59342 | 3254 ft | 194 kts | 135° |
| 2026-05-08 10:56 | 47.42886 | 8.60785 | 3817 ft | 204 kts | 135° |
| 2026-05-08 10:56 | 47.41872 | 8.62214 | 4470 ft | 209 kts | 136° |
| 2026-05-08 10:57 | 47.40842 | 8.63864 | 4925 ft | 227 kts | 119° |
| 2026-05-08 10:57 | 47.40408 | 8.66096 | 5602 ft | 232 kts | 89° |
| 2026-05-08 10:57 | 47.41447 | 8.70542 | 5959 ft | 232 kts | 48° |
| 2026-05-08 10:58 | 47.42735 | 8.71979 | 5954 ft | 231 kts | 24° |
| 2026-05-08 10:58 | 47.44299 | 8.72434 | 5951 ft | 234 kts | 355° |
| 2026-05-08 10:58 | 47.45845 | 8.71744 | 5960 ft | 234 kts | 329° |
| 2026-05-08 10:58 | 47.47078 | 8.70198 | 5970 ft | 235 kts | 314° |
| 2026-05-08 10:59 | 47.48174 | 8.68416 | 5877 ft | 234 kts | 313° |
| 2026-05-08 10:59 | 47.49275 | 8.66623 | 5797 ft | 234 kts | 314° |
| 2026-05-08 10:59 | 47.50367 | 8.64861 | 5709 ft | 234 kts | 313° |
| 2026-05-08 10:59 | 47.51469 | 8.63107 | 5636 ft | 233 kts | 314° |
| 2026-05-08 11:00 | 47.52596 | 8.61362 | 5539 ft | 233 kts | 315° |
| 2026-05-08 11:00 | 47.53710 | 8.59603 | 5434 ft | 234 kts | 314° |
| 2026-05-08 11:00 | 47.54822 | 8.57842 | 5359 ft | 233 kts | 314° |
| 2026-05-08 11:00 | 47.55925 | 8.56089 | 5280 ft | 233 kts | 314° |
| 2026-05-08 11:01 | 47.57028 | 8.54328 | 5219 ft | 233 kts | 314° |
| 2026-05-08 11:01 | 47.58128 | 8.52569 | 5155 ft | 234 kts | 314° |
| 2026-05-08 11:01 | 47.59205 | 8.50847 | 5089 ft | 223 kts | 314° |
| 2026-05-08 11:01 | 47.60239 | 8.49192 | 5020 ft | 217 kts | 314° |
| 2026-05-08 11:02 | 47.61275 | 8.47536 | 4944 ft | 219 kts | 314° |
| 2026-05-08 11:02 | 47.62833 | 8.43943 | 4612 ft | 209 kts | 275° |
| 2026-05-08 11:02 | 47.62619 | 8.41853 | 4434 ft | 201 kts | 249° |
| 2026-05-08 11:03 | 47.61965 | 8.40065 | 4262 ft | 196 kts | 233° |
| 2026-05-08 11:03 | 47.60973 | 8.38750 | 4090 ft | 194 kts | 205° |
| 2026-05-08 11:03 | 47.59675 | 8.38323 | 3965 ft | 188 kts | 173° |
| 2026-05-08 11:03 | 47.58612 | 8.39114 | 3953 ft | 167 kts | 129° |
| 2026-05-08 11:04 | 47.57880 | 8.40455 | 3938 ft | 168 kts | 131° |
| 2026-05-08 11:04 | 47.57039 | 8.41620 | 3747 ft | 166 kts | 139° |
| 2026-05-08 11:04 | 47.56162 | 8.42750 | 3527 ft | 165 kts | 136° |
| 2026-05-08 11:04 | 47.55327 | 8.43900 | 3308 ft | 165 kts | 135° |
| 2026-05-08 11:05 | 47.54490 | 8.45053 | 3088 ft | 164 kts | 135° |
| 2026-05-08 11:05 | 47.53646 | 8.46198 | 2855 ft | 165 kts | 135° |
| 2026-05-08 11:05 | 47.52819 | 8.47328 | 2641 ft | 160 kts | 135° |
| 2026-05-08 11:05 | 47.51993 | 8.48461 | 2442 ft | 162 kts | 135° |
| 2026-05-08 11:06 | 47.51171 | 8.49578 | 2208 ft | 159 kts | 136° |
| 2026-05-08 11:06 | 47.50353 | 8.50694 | 1990 ft | 163 kts | 136° |
| 2026-05-08 11:06 | 47.49512 | 8.51840 | 1781 ft | 165 kts | 136° |
| 2026-05-08 11:06 | 47.48671 | 8.52980 | 1572 ft | 163 kts | 136° |
| 2026-05-08 11:07 | 47.47839 | 8.54114 | 1395 ft | 157 kts | 136° |
| 2026-05-08 11:07 | 47.47211 | 8.54974 | 1387 ft | 90 kts | 138° |
| 2026-05-08 11:07 | 47.46896 | 8.55397 | 1390 ft | 32 kts | 140° |
| 2026-05-08 11:07 | 47.46746 | 8.55583 | 1393 ft | 26 kts | 148° |
| 2026-05-08 11:08 | 47.46585 | 8.55682 | 1396 ft | 23 kts | 169° |
| 2026-05-08 11:08 | 47.46452 | 8.55726 | 1398 ft | 3 kts | 167° |
| 2026-05-08 11:09 | 47.46450 | 8.55727 | 1398 ft | 1 kts | 166° |
| 2026-05-08 11:09 | 47.46417 | 8.55739 | 1398 ft | 6 kts | 165° |
| 2026-05-08 11:10 | 47.46365 | 8.55780 | 1399 ft | 9 kts | 140° |
| 2026-05-08 11:10 | 47.46321 | 8.55838 | 1400 ft | 7 kts | 136° |
| 2026-05-08 11:10 | 47.46286 | 8.55881 | 1401 ft | 8 kts | 153° |
| 2026-05-08 11:10 | 47.46238 | 8.55860 | 1402 ft | 7 kts | 248° |
| 2026-05-08 11:11 | 47.46234 | 8.55808 | 1401 ft | 4 kts | 270° |
| 2026-05-08 11:11 | 47.46233 | 8.55762 | 1400 ft | 4 kts | 255° |
| 2026-05-08 11:11 | 47.46196 | 8.55734 | 1400 ft | 4 kts | 179° |
| 2026-05-08 11:11 | 47.46172 | 8.55733 | 1401 ft | 2 kts | 186° |
| 2026-05-08 11:12 | 47.46159 | 8.55731 | 1401 ft | 0 kts | 186° |